Terminal Aerodrome Forecast
Issued by NWS Quad Cities IA IL

Home | Current Version | Previous Version | Text Only | Print | Product List | Glossary On
Versions: 1 2 3 4 5 6 7 8 9 10 11 12 13 14 15 16 17 18 19 20 21 22 23 24 25 26 27 28 29 30
176
FTUS43 KDVN 191335 AAA
TAFDBQ
TAF AMD
KDBQ 191335Z 1914/2012 15005KT 1/4SM FZFG VV001
     FM191500 14006KT 1/2SM FG OVC002
     FM191800 10005KT 1SM -RA BR OVC004
     FM200200 12004KT 1/2SM -RA FG OVC002=

USA.gov is the U.S. government's official web portal to all federal, state and local government web resources and services.